createdAt,value
2023-07-29T00:01:26.591Z,0.50
2023-07-29T00:03:54.541Z,0.50
2023-07-29T00:06:22.680Z,0.60
2023-07-29T00:08:50.879Z,0.60
2023-07-29T00:11:19.941Z,0.50
2023-07-29T00:13:48.326Z,0.60
2023-07-29T00:16:18.304Z,0.50
2023-07-29T00:18:46.439Z,0.60
2023-07-29T00:21:14.268Z,0.50
2023-07-29T00:23:42.257Z,0.60
2023-07-29T00:26:10.423Z,0.67
2023-07-29T00:28:38.539Z,0.50
2023-07-29T00:31:06.944Z,0.50
2023-07-29T00:33:37.733Z,0.60
2023-07-29T00:36:06.222Z,0.40
2023-07-29T00:38:34.116Z,0.50
2023-07-29T00:41:04.238Z,0.63
2023-07-29T00:43:32.248Z,0.43
2023-07-29T00:46:01.464Z,0.67
2023-07-29T00:48:31.102Z,0.57
2023-07-29T00:51:00.376Z,0.80
2023-07-29T00:53:29.551Z,0.30
2023-07-29T00:55:57.441Z,0.70
2023-07-29T00:58:25.377Z,0.47
2023-07-29T01:00:54.657Z,0.60
2023-07-29T01:03:23.258Z,0.57
2023-07-29T01:06:01.431Z,0.97
2023-07-29T01:08:35.508Z,0.60
2023-07-29T01:11:15.971Z,0.50
2023-07-29T01:13:53.716Z,0.67
2023-07-29T01:16:25.827Z,0.63
2023-07-29T01:18:57.418Z,0.50
2023-07-29T01:21:29.377Z,0.57
2023-07-29T01:24:02.090Z,0.50
2023-07-29T01:26:30.300Z,0.90
2023-07-29T01:28:59.172Z,0.43
2023-07-29T01:31:33.323Z,0.50
2023-07-29T01:34:08.252Z,0.57
2023-07-29T01:36:40.935Z,0.53
2023-07-29T01:39:12.386Z,0.50
2023-07-29T01:41:42.181Z,0.63
2023-07-29T01:44:12.648Z,0.50
2023-07-29T01:46:40.531Z,0.60
2023-07-29T01:49:08.917Z,0.63
2023-07-29T01:51:36.757Z,0.50
2023-07-29T01:54:05.418Z,0.60
2023-07-29T01:56:35.042Z,0.80
2023-07-29T01:59:03.597Z,0.67
2023-07-29T02:01:32.591Z,0.60
2023-07-29T02:04:00.641Z,0.40
2023-07-29T02:06:28.562Z,0.60
2023-07-29T02:08:58.143Z,0.60
2023-07-29T02:11:28.699Z,0.80
2023-07-29T02:13:59.059Z,0.40
2023-07-29T02:16:27.036Z,0.70
2023-07-29T02:18:56.554Z,0.60
2023-07-29T02:21:25.169Z,0.90
2023-07-29T02:23:53.125Z,0.70
2023-07-29T02:26:21.255Z,0.57
2023-07-29T02:28:49.117Z,0.67
2023-07-29T02:31:23.691Z,0.50
2023-07-29T02:33:52.068Z,0.60
2023-07-29T02:36:20.933Z,0.50
2023-07-29T02:38:48.952Z,0.73
2023-07-29T02:41:17.109Z,0.57
2023-07-29T02:43:45.295Z,0.53
2023-07-29T02:46:13.232Z,0.60
2023-07-29T02:48:43.792Z,0.50
2023-07-29T02:51:12.907Z,0.50
2023-07-29T02:53:40.888Z,0.57
2023-07-29T02:56:10.101Z,0.63
2023-07-29T02:58:38.743Z,0.97
2023-07-29T03:01:07.809Z,0.50
2023-07-29T03:03:36.314Z,0.70
2023-07-29T03:06:08.686Z,0.50
2023-07-29T03:08:37.109Z,0.70
2023-07-29T03:11:08.234Z,0.90
2023-07-29T03:13:36.141Z,0.90
2023-07-29T03:16:07.914Z,0.50
2023-07-29T03:18:35.984Z,0.90
2023-07-29T03:21:04.356Z,0.57
2023-07-29T03:23:35.164Z,0.80
2023-07-29T03:26:10.738Z,0.63
2023-07-29T03:28:40.513Z,0.50
2023-07-29T03:31:09.009Z,0.70
2023-07-29T03:33:37.216Z,0.60
2023-07-29T03:36:05.565Z,0.57
2023-07-29T03:38:36.223Z,0.60
2023-07-29T03:41:04.503Z,0.60
2023-07-29T03:43:32.530Z,0.50
2023-07-29T03:46:03.134Z,0.70
2023-07-29T03:48:32.295Z,0.60
2023-07-29T03:51:00.562Z,0.93
2023-07-29T03:53:28.530Z,0.73
2023-07-29T03:55:57.828Z,0.60
2023-07-29T03:58:25.806Z,0.40
2023-07-29T04:00:53.747Z,0.83
2023-07-29T04:03:21.961Z,0.50
2023-07-29T04:05:53.104Z,0.70
2023-07-29T04:08:21.705Z,0.70
2023-07-29T04:10:50.347Z,0.73
2023-07-29T04:13:19.736Z,0.57
2023-07-29T04:15:47.730Z,0.80
2023-07-29T04:18:15.674Z,0.87
2023-07-29T04:21:03.519Z,0.60
2023-07-29T04:23:31.448Z,0.80
2023-07-29T04:25:59.468Z,1.03
2023-07-29T04:28:28.753Z,0.87
2023-07-29T04:30:57.121Z,0.90
2023-07-29T04:33:25.072Z,0.90
2023-07-29T04:35:52.962Z,0.73
2023-07-29T04:38:21.194Z,1.83
2023-07-29T04:40:50.995Z,1.20
2023-07-29T04:43:18.875Z,0.80
2023-07-29T04:45:48.154Z,1.03
2023-07-29T04:48:16.303Z,0.80
2023-07-29T04:50:44.213Z,0.87
2023-07-29T04:53:12.089Z,1.27
2023-07-29T04:55:39.919Z,1.17
2023-07-29T04:58:08.134Z,1.10
2023-07-29T05:00:36.102Z,0.90
2023-07-29T05:03:06.347Z,1.03
2023-07-29T05:05:34.550Z,1.57
2023-07-29T05:08:03.280Z,1.53
2023-07-29T05:10:31.332Z,0.90
2023-07-29T05:12:59.405Z,0.97
2023-07-29T05:15:27.358Z,1.60
2023-07-29T05:17:55.245Z,1.27
2023-07-29T05:20:25.801Z,1.43
2023-07-29T05:22:53.687Z,1.20
2023-07-29T05:25:21.742Z,1.00
2023-07-29T05:27:49.632Z,1.63
2023-07-29T05:30:17.731Z,1.57
2023-07-29T05:32:45.905Z,1.43
2023-07-29T05:35:14.064Z,1.50
2023-07-29T05:37:43.513Z,0.70
2023-07-29T05:40:11.941Z,1.73
2023-07-29T05:42:41.193Z,1.37
2023-07-29T05:45:11.596Z,1.50
2023-07-29T05:47:39.891Z,1.70
2023-07-29T05:50:09.076Z,1.50
2023-07-29T05:52:37.085Z,1.60
2023-07-29T05:55:07.436Z,1.70
2023-07-29T05:57:35.477Z,1.83
2023-07-29T06:00:03.686Z,1.07
2023-07-29T06:02:42.002Z,1.70
2023-07-29T06:05:12.945Z,1.67
2023-07-29T06:07:44.933Z,1.70
2023-07-29T06:10:15.538Z,1.40
2023-07-29T06:12:44.443Z,2.03
2023-07-29T06:15:12.997Z,2.10
2023-07-29T06:17:41.880Z,1.37
2023-07-29T06:20:10.863Z,2.20
2023-07-29T06:22:38.853Z,1.70
2023-07-29T06:25:07.084Z,1.57
2023-07-29T06:27:36.565Z,1.83
2023-07-29T06:30:04.887Z,2.67
2023-07-29T06:32:33.726Z,1.67
2023-07-29T06:35:01.775Z,1.40
2023-07-29T06:37:29.682Z,1.90
2023-07-29T06:39:57.558Z,1.53
2023-07-29T06:42:25.630Z,1.60
2023-07-29T06:44:54.820Z,1.70
2023-07-29T06:47:22.866Z,1.40
2023-07-29T06:49:50.915Z,1.40
2023-07-29T06:52:18.855Z,1.90
2023-07-29T06:54:46.685Z,2.03
2023-07-29T06:57:15.358Z,2.47
2023-07-29T06:59:43.189Z,1.57
2023-07-29T07:02:12.446Z,1.80
2023-07-29T07:04:40.334Z,1.70
2023-07-29T07:07:09.168Z,2.67
2023-07-29T07:09:37.033Z,2.40
2023-07-29T07:12:05.420Z,1.13
2023-07-29T07:14:33.239Z,1.87
2023-07-29T07:17:01.184Z,1.57
2023-07-29T07:19:30.396Z,2.13
2023-07-29T07:21:58.288Z,2.70
2023-07-29T07:24:26.096Z,2.90
2023-07-29T07:26:54.025Z,1.23
2023-07-29T07:29:21.974Z,1.40
2023-07-29T07:31:53.457Z,1.60
2023-07-29T07:34:21.387Z,1.97
2023-07-29T07:36:50.588Z,1.10
2023-07-29T07:39:18.502Z,1.40
2023-07-29T07:41:46.377Z,1.53
2023-07-29T07:44:16.502Z,1.33
2023-07-29T07:46:44.427Z,1.50
2023-07-29T07:49:12.325Z,1.80
2023-07-29T07:51:40.243Z,1.37
2023-07-29T07:54:09.421Z,1.03
2023-07-29T07:56:37.486Z,1.77
2023-07-29T07:59:05.886Z,1.13
2023-07-29T08:01:37.528Z,1.27
2023-07-29T08:04:05.883Z,0.90
2023-07-29T08:06:34.883Z,1.07
2023-07-29T08:09:03.621Z,1.70
2023-07-29T08:11:32.880Z,1.30
2023-07-29T08:14:01.186Z,1.03
2023-07-29T08:16:29.098Z,1.30
2023-07-29T08:18:57.012Z,1.33
2023-07-29T08:21:24.836Z,1.27
2023-07-29T08:23:52.739Z,1.37
2023-07-29T08:26:20.739Z,1.47
2023-07-29T08:28:51.980Z,1.97
2023-07-29T08:31:21.901Z,1.27
2023-07-29T08:33:49.730Z,1.57
2023-07-29T08:36:18.098Z,1.00
2023-07-29T08:38:46.017Z,1.00
2023-07-29T08:41:16.932Z,1.20
2023-07-29T08:43:52.523Z,0.80
2023-07-29T08:46:22.311Z,0.93
2023-07-29T08:48:51.000Z,1.53
2023-07-29T08:51:20.029Z,1.20
2023-07-29T08:53:48.966Z,0.67
2023-07-29T08:56:17.982Z,1.10
2023-07-29T08:58:45.952Z,0.67
2023-07-29T09:01:14.277Z,0.70
2023-07-29T09:03:43.883Z,0.70
2023-07-29T09:06:11.974Z,0.60
2023-07-29T09:08:40.028Z,1.13
2023-07-29T09:11:08.786Z,1.20
2023-07-29T09:13:37.382Z,1.30
2023-07-29T09:16:06.533Z,0.63
2023-07-29T09:18:35.013Z,1.10
2023-07-29T09:21:04.280Z,1.33
2023-07-29T09:23:41.207Z,1.20
2023-07-29T09:26:10.643Z,1.10
2023-07-29T09:28:40.344Z,0.83
2023-07-29T09:31:08.692Z,0.90
2023-07-29T09:33:37.940Z,0.93
2023-07-29T09:36:11.406Z,0.97
2023-07-29T09:38:39.932Z,1.00
2023-07-29T09:41:08.052Z,0.83
2023-07-29T09:43:37.014Z,1.43
2023-07-29T09:46:06.478Z,1.00
2023-07-29T09:48:35.337Z,1.00
2023-07-29T09:51:11.883Z,1.10
2023-07-29T09:53:45.335Z,0.90
2023-07-29T09:56:15.225Z,1.20
2023-07-29T09:58:46.524Z,1.30
2023-07-29T10:01:14.972Z,0.97
2023-07-29T10:03:43.335Z,1.13
2023-07-29T10:06:13.114Z,0.70
2023-07-29T10:08:41.791Z,1.33
2023-07-29T10:11:10.876Z,0.80
2023-07-29T10:13:39.775Z,0.77
2023-07-29T10:16:08.037Z,0.77
2023-07-29T10:18:36.242Z,1.03
2023-07-29T10:21:04.942Z,0.83
2023-07-29T10:23:40.436Z,0.70
2023-07-29T10:26:13.828Z,0.70
2023-07-29T10:28:43.470Z,0.90
2023-07-29T10:31:12.528Z,0.90
2023-07-29T10:33:40.911Z,0.80
2023-07-29T10:36:09.979Z,0.70
2023-07-29T10:38:39.512Z,0.97
2023-07-29T10:41:07.358Z,0.60
2023-07-29T10:43:37.079Z,0.90
2023-07-29T10:46:18.328Z,0.60
2023-07-29T10:48:53.885Z,0.53
2023-07-29T10:51:31.216Z,0.60
2023-07-29T10:54:02.701Z,0.80
2023-07-29T10:56:32.683Z,0.50
2023-07-29T10:59:21.765Z,0.40
2023-07-29T11:01:53.920Z,0.70
2023-07-29T11:04:26.655Z,0.70
2023-07-29T11:07:28.170Z,0.67
2023-07-29T11:10:02.813Z,0.53
2023-07-29T11:12:43.222Z,0.40
2023-07-29T11:15:16.247Z,0.47
2023-07-29T11:17:45.815Z,0.43
2023-07-29T11:20:14.735Z,0.50
2023-07-29T11:22:43.327Z,0.60
2023-07-29T11:25:14.053Z,0.80
2023-07-29T11:27:42.383Z,0.47
2023-07-29T11:30:12.731Z,0.50
2023-07-29T11:32:42.252Z,0.50
2023-07-29T11:35:13.686Z,0.83
2023-07-29T11:37:41.873Z,0.70
2023-07-29T11:40:11.286Z,0.60
2023-07-29T11:42:40.721Z,0.47
2023-07-29T11:45:10.506Z,0.80
2023-07-29T11:47:38.841Z,0.70
2023-07-29T11:50:10.202Z,0.60
2023-07-29T11:52:39.541Z,0.80
2023-07-29T11:55:08.023Z,0.70
2023-07-29T11:57:37.787Z,0.50
2023-07-29T12:00:10.976Z,0.60
2023-07-29T12:02:40.912Z,0.60
2023-07-29T12:05:10.628Z,0.60
2023-07-29T12:07:40.909Z,0.60
2023-07-29T12:10:09.535Z,0.60
2023-07-29T12:12:42.700Z,0.50
2023-07-29T12:15:12.356Z,0.97
2023-07-29T12:17:42.499Z,0.60
2023-07-29T12:20:12.333Z,0.77
2023-07-29T12:22:40.986Z,0.30
2023-07-29T12:25:10.064Z,0.43
2023-07-29T12:27:38.060Z,0.50
2023-07-29T12:30:07.083Z,0.60
2023-07-29T12:32:45.687Z,0.60
2023-07-29T12:35:13.860Z,0.50
2023-07-29T12:37:43.790Z,0.93
2023-07-29T12:40:23.934Z,0.37
2023-07-29T12:42:52.369Z,0.63
2023-07-29T12:45:22.398Z,0.70
2023-07-29T12:47:52.113Z,0.50
2023-07-29T12:50:20.038Z,0.57
2023-07-29T12:52:48.002Z,0.67
2023-07-29T12:55:15.883Z,0.73
2023-07-29T12:57:44.581Z,0.60
2023-07-29T13:00:13.400Z,0.40
2023-07-29T13:02:41.820Z,0.60
2023-07-29T13:05:13.295Z,0.57
2023-07-29T13:07:41.479Z,0.50
2023-07-29T13:10:11.034Z,0.40
2023-07-29T13:12:39.096Z,0.40
2023-07-29T13:15:08.396Z,0.83
2023-07-29T13:17:36.491Z,0.63
2023-07-29T13:20:04.646Z,0.73
2023-07-29T13:22:33.910Z,0.47
2023-07-29T13:25:01.836Z,0.60
2023-07-29T13:27:30.219Z,0.40
2023-07-29T13:29:58.080Z,0.50
2023-07-29T13:32:26.261Z,0.47
2023-07-29T13:34:54.308Z,0.77
2023-07-29T13:37:22.300Z,0.57
2023-07-29T13:39:51.476Z,0.50
2023-07-29T13:42:20.239Z,0.50
2023-07-29T13:44:48.150Z,0.70
2023-07-29T13:47:16.113Z,0.43
2023-07-29T13:49:43.934Z,0.70
2023-07-29T13:52:11.870Z,0.50
2023-07-29T13:54:40.075Z,0.83
2023-07-29T13:57:11.347Z,0.50
2023-07-29T13:59:39.775Z,0.40
2023-07-29T14:02:08.098Z,0.60
2023-07-29T14:04:36.370Z,0.67
2023-07-29T14:07:04.846Z,0.33
2023-07-29T14:09:33.439Z,0.93
2023-07-29T14:12:01.367Z,0.50
2023-07-29T14:14:30.785Z,0.60
2023-07-29T14:16:59.002Z,0.50
2023-07-29T14:19:26.855Z,0.70
2023-07-29T14:21:54.815Z,0.40
2023-07-29T14:24:23.774Z,0.40
2023-07-29T14:26:51.696Z,0.60
2023-07-29T14:29:19.574Z,0.60
2023-07-29T14:31:48.951Z,0.40
2023-07-29T14:34:16.964Z,0.77
2023-07-29T14:36:44.865Z,0.40
2023-07-29T14:39:12.779Z,0.50
2023-07-29T14:41:40.810Z,0.60
2023-07-29T14:44:08.859Z,0.60
2023-07-29T14:46:37.090Z,0.40
2023-07-29T14:49:06.588Z,0.53
2023-07-29T14:51:34.879Z,0.40
2023-07-29T14:54:02.720Z,0.50
2023-07-29T14:56:30.681Z,0.50
2023-07-29T14:58:58.519Z,0.93
2023-07-29T15:01:26.939Z,0.60
2023-07-29T15:03:54.931Z,0.60
2023-07-29T15:06:25.180Z,0.60
2023-07-29T15:08:53.124Z,0.47
2023-07-29T15:11:20.970Z,0.37
2023-07-29T15:13:48.850Z,0.70
2023-07-29T15:16:16.751Z,0.50
2023-07-29T15:18:44.685Z,0.60
2023-07-29T15:21:12.503Z,0.40
2023-07-29T15:23:44.163Z,0.60
2023-07-29T15:26:11.976Z,0.57
2023-07-29T15:28:39.923Z,0.87
2023-07-29T15:31:07.946Z,0.50
2023-07-29T15:33:36.234Z,0.70
2023-07-29T15:36:04.325Z,0.40
2023-07-29T15:38:32.294Z,0.30
2023-07-29T15:41:01.689Z,0.70
2023-07-29T15:43:31.451Z,0.60
2023-07-29T15:45:59.330Z,0.40
2023-07-29T15:48:27.250Z,0.60
2023-07-29T15:50:55.191Z,0.53
2023-07-29T15:53:23.085Z,0.60
2023-07-29T15:55:52.335Z,0.60
2023-07-29T15:58:21.615Z,0.33
2023-07-29T16:00:49.411Z,0.47
2023-07-29T16:03:17.390Z,0.43
2023-07-29T16:05:48.201Z,0.47
2023-07-29T16:08:16.381Z,0.70
2023-07-29T16:10:44.254Z,0.30
2023-07-29T16:13:14.097Z,0.40
2023-07-29T16:15:43.382Z,0.50
2023-07-29T16:18:11.263Z,0.43
2023-07-29T16:20:39.262Z,0.87
2023-07-29T16:23:09.652Z,0.43
2023-07-29T16:25:37.973Z,0.50
2023-07-29T16:28:06.117Z,0.40
2023-07-29T16:30:34.139Z,0.60
2023-07-29T16:33:03.329Z,0.40
2023-07-29T16:35:31.267Z,0.40
2023-07-29T16:38:00.520Z,0.67
2023-07-29T16:40:28.657Z,0.60
2023-07-29T16:42:56.733Z,0.60
2023-07-29T16:45:24.880Z,0.60
2023-07-29T16:47:53.082Z,0.30
2023-07-29T16:50:22.479Z,0.50
2023-07-29T16:52:54.593Z,0.50
2023-07-29T16:55:22.557Z,0.50
2023-07-29T16:57:50.563Z,0.40
2023-07-29T17:00:18.541Z,0.50
2023-07-29T17:02:46.508Z,0.67
2023-07-29T17:05:14.608Z,0.63
2023-07-29T17:07:43.816Z,0.70
2023-07-29T17:10:11.870Z,0.40
2023-07-29T17:12:39.694Z,0.50
2023-07-29T17:15:09.597Z,0.40
2023-07-29T17:17:38.268Z,0.87
2023-07-29T17:20:07.422Z,0.60
2023-07-29T17:22:36.399Z,0.70
2023-07-29T17:25:06.567Z,0.50
2023-07-29T17:27:34.436Z,0.50
2023-07-29T17:30:02.313Z,0.50
2023-07-29T17:32:30.234Z,0.50
2023-07-29T17:34:58.079Z,0.47
2023-07-29T17:37:26.026Z,0.73
2023-07-29T17:39:55.053Z,0.40
2023-07-29T17:42:24.291Z,1.03
2023-07-29T17:44:52.308Z,0.50
2023-07-29T17:47:20.364Z,0.63
2023-07-29T17:49:48.281Z,0.33
2023-07-29T17:52:16.117Z,0.60
2023-07-29T17:54:44.009Z,0.43
2023-07-29T17:57:11.885Z,1.17
2023-07-29T17:59:41.145Z,0.83
2023-07-29T18:02:09.094Z,0.80
2023-07-29T18:04:37.013Z,0.63
2023-07-29T18:07:05.155Z,0.60
2023-07-29T18:09:33.167Z,0.93
2023-07-29T18:12:02.122Z,0.70
2023-07-29T18:14:30.114Z,0.97
2023-07-29T18:16:59.404Z,0.90
2023-07-29T18:19:30.917Z,0.70
2023-07-29T18:21:59.069Z,0.67
2023-07-29T18:24:26.907Z,0.50
2023-07-29T18:26:54.831Z,0.60
2023-07-29T18:29:22.704Z,0.47
2023-07-29T18:31:52.731Z,0.73
2023-07-29T18:34:23.011Z,0.57
2023-07-29T18:36:50.993Z,0.60
2023-07-29T18:39:18.845Z,0.67
2023-07-29T18:41:46.750Z,0.80
2023-07-29T18:44:14.594Z,0.57
2023-07-29T18:46:42.597Z,0.50
2023-07-29T18:49:10.492Z,1.03
2023-07-29T18:51:41.046Z,0.70
2023-07-29T18:54:09.270Z,0.57
2023-07-29T18:56:37.521Z,0.50
2023-07-29T18:59:05.617Z,0.80
2023-07-29T19:01:33.753Z,1.17
2023-07-29T19:04:01.900Z,0.50
2023-07-29T19:06:29.787Z,1.10
2023-07-29T19:08:59.137Z,0.70
2023-07-29T19:11:27.015Z,0.70
2023-07-29T19:13:55.288Z,0.80
2023-07-29T19:16:23.258Z,0.97
2023-07-29T19:18:51.362Z,0.50
2023-07-29T19:21:20.811Z,0.63
2023-07-29T19:23:49.219Z,0.70
2023-07-29T19:26:22.148Z,0.40
2023-07-29T19:28:51.061Z,0.83
2023-07-29T19:31:19.316Z,0.67
2023-07-29T19:33:47.425Z,0.50
2023-07-29T19:36:15.390Z,0.67
2023-07-29T19:38:43.380Z,0.70
2023-07-29T19:41:11.277Z,0.60
2023-07-29T19:43:40.653Z,0.70
2023-07-29T19:48:39.669Z,0.77
2023-07-29T19:51:07.634Z,0.60
2023-07-29T19:53:35.498Z,0.50
2023-07-29T19:56:04.313Z,0.80
2023-07-29T19:58:32.262Z,0.40
2023-07-29T20:01:01.787Z,0.60
2023-07-29T20:03:29.848Z,0.83
2023-07-29T20:05:57.813Z,0.53
2023-07-29T20:08:25.831Z,0.90
2023-07-29T20:10:53.901Z,0.50
2023-07-29T20:13:22.421Z,0.50
2023-07-29T20:15:50.615Z,0.63
2023-07-29T20:18:19.972Z,1.67
2023-07-29T20:20:49.536Z,0.80
2023-07-29T20:23:17.579Z,0.60
2023-07-29T20:25:45.440Z,0.90
2023-07-29T20:28:15.812Z,1.00
2023-07-29T20:30:44.340Z,0.77
2023-07-29T20:33:12.205Z,0.63
2023-07-29T20:35:41.488Z,0.60
2023-07-29T20:38:10.859Z,0.60
2023-07-29T20:40:38.827Z,0.90
2023-07-29T20:43:06.653Z,0.47
2023-07-29T20:45:34.627Z,0.40
2023-07-29T20:48:02.558Z,0.70
2023-07-29T20:50:30.594Z,0.53
2023-07-29T20:52:59.798Z,0.53
2023-07-29T20:55:27.882Z,0.73
2023-07-29T20:57:55.708Z,0.80
2023-07-29T21:00:23.870Z,0.80
2023-07-29T21:02:51.816Z,0.63
2023-07-29T21:05:19.744Z,1.10
2023-07-29T21:07:47.611Z,0.50
2023-07-29T21:10:16.891Z,0.50
2023-07-29T21:12:44.724Z,0.93
2023-07-29T21:15:12.678Z,0.77
2023-07-29T21:17:40.578Z,0.50
2023-07-29T21:20:09.712Z,0.40
2023-07-29T21:22:38.382Z,0.50
2023-07-29T21:25:07.399Z,0.53
2023-07-29T21:27:36.653Z,0.70
2023-07-29T21:30:05.301Z,0.80
2023-07-29T21:32:33.290Z,0.73
2023-07-29T21:35:01.240Z,0.50
2023-07-29T21:37:36.167Z,0.70
2023-07-29T21:40:06.272Z,0.60
2023-07-29T21:42:34.406Z,0.60
2023-07-29T21:45:04.805Z,0.70
2023-07-29T21:47:32.900Z,0.60
2023-07-29T21:50:00.802Z,0.50
2023-07-29T21:52:29.756Z,0.63
2023-07-29T21:54:57.750Z,0.50
2023-07-29T21:57:25.924Z,0.67
2023-07-29T21:59:53.812Z,0.50
2023-07-29T22:02:23.472Z,0.60
2023-07-29T22:04:51.463Z,0.90
2023-07-29T22:07:19.409Z,0.50
2023-07-29T22:09:47.281Z,0.57
2023-07-29T22:12:15.348Z,0.43
2023-07-29T22:14:45.530Z,0.83
2023-07-29T22:17:13.842Z,0.97
2023-07-29T22:19:43.898Z,0.63
2023-07-29T22:22:12.682Z,0.63
2023-07-29T22:24:40.541Z,0.97
2023-07-29T22:27:08.997Z,0.83
2023-07-29T22:29:38.321Z,1.33
2023-07-29T22:32:07.009Z,0.90
2023-07-29T22:34:35.353Z,1.10
2023-07-29T22:37:09.296Z,0.80
2023-07-29T22:39:37.672Z,0.97
2023-07-29T22:42:06.005Z,1.37
2023-07-29T22:44:34.690Z,0.70
2023-07-29T22:47:02.510Z,0.70
2023-07-29T22:49:30.985Z,0.53
2023-07-29T22:51:58.830Z,0.60
2023-07-29T22:54:30.462Z,0.57
2023-07-29T22:56:58.414Z,0.70
2023-07-29T22:59:26.302Z,1.33
2023-07-29T23:01:54.500Z,0.60
2023-07-29T23:04:22.610Z,0.77
2023-07-29T23:06:50.458Z,0.90
2023-07-29T23:09:18.321Z,0.77
2023-07-29T23:11:47.750Z,0.87
2023-07-29T23:14:15.762Z,0.77
2023-07-29T23:16:43.611Z,0.90
2023-07-29T23:19:11.566Z,0.80
2023-07-29T23:21:39.738Z,1.00
2023-07-29T23:24:07.885Z,0.87
2023-07-29T23:26:35.795Z,0.90
2023-07-29T23:29:05.112Z,0.70
2023-07-29T23:31:33.224Z,0.90
2023-07-29T23:34:01.352Z,0.80
2023-07-29T23:36:29.311Z,0.93
2023-07-29T23:38:57.194Z,0.57
2023-07-29T23:41:25.117Z,1.23
2023-07-29T23:43:52.990Z,0.90
2023-07-29T23:46:23.725Z,1.00
2023-07-29T23:48:51.673Z,1.23
2023-07-29T23:51:19.537Z,1.57
2023-07-29T23:53:47.418Z,1.10
2023-07-29T23:56:17.088Z,1.80
2023-07-29T23:58:44.976Z,1.83
